• Join FlightAware (Why Join?)
  • Login
  • US Flag 
01:36PM EDT


 

Airport Tracker/Info


-or-


 

Live Flight TrackerFlight Track Log ✈ UPS2876 ✈ 08-Jul-2013 ✈ KSDF - KPHX

Flight Track Log - Related Links

Times and Time Zones

All times are in EDT time to prevent confusion due to time zone crossing. See the UPS2876 flight status page for this flight to view local times or setup timezone preferences in your user account.

Time Position Orientation Groundspeed Altitude Reporting Facility
EDT Latitude Longitude Course Direction KTS MPH feet Rate Location/Type
04:41PM 38.1740 -85.7420 278° West 22 25  Level FlightAware
04:41PM 38.1740 -85.7430 270° West 21 24 60 Level FlightAware
04:42PM 38.1760 -85.7440 339° North 31 36 60 Level FlightAware
04:43PM 38.1800 -85.7450 349° North 18 21 120 Level FlightAware
04:43PM 38.1820 -85.7460 339° North 19 22 120 Level FlightAware
04:43PM 38.1840 -85.7460 360° North 30 35 180 Level FlightAware
04:44PM 38.1850 -85.7470 322° Northwest 11 13 240 Level FlightAware
04:45PM 38.1830 -85.7470 180° South 48 55 300 Level FlightAware
04:45PM 38.1670 -85.7420 166° South 162 186 500 1,920 Climbing FlightAware
04:46PM 38.1470 -85.7350 165° South 163 188 1,800 2,160 Climbing FlightAware
04:46PM 38.1280 -85.7320 173° South 191 220 2,300 1,500 Climbing FlightAware
04:47PM 38.0960 -85.7340 183° South 226 260 3,200 1,980 Climbing FlightAware
04:47PM 38.0810 -85.7420 203° Southwest 231 266 3,900 2,100 Climbing FlightAware
04:47PM 38.0720 -85.7560 231° Southwest 249 287 4,200 1,560 Climbing FlightAware
04:47PM 38.0690 -85.7770 260° West 264 304 4,600 2,400 Climbing FlightAware
04:48PM 38.0730 -85.8240 276° West 270 311 6,000 3,000 Climbing FlightAware
04:48PM 38.0750 -85.8650 274° West 273 314 7,400 3,000 Climbing FlightAware
04:49PM 38.0750 -85.8840 270° West 277 319 7,900 2,700 Climbing FlightAware
04:49PM 38.0730 -85.9340 267° West 287 330 9,300 2,400 Climbing FlightAware
04:49PM 38.0670 -85.9560 251° West 290 334 9,700 1,860 Climbing FlightAware
04:50PM 38.0480 -86.0000 241° Southwest 304 350 10,700 1,800 Climbing FlightAware
04:51PM 38.0410 -86.0840 264° West 352 405 11,900 2,160 Climbing FlightAware
04:51PM 38.0360 -86.1590 265° West 372 428 13,600 3,060 Climbing FlightAware
04:52PM 38.0300 -86.2650 266° West 388 447 16,200 3,180 Climbing FlightAware
04:52PM 38.0250 -86.3380 265° West 399 459 17,900 2,940 Climbing FlightAware
04:53PM 38.0170 -86.4600 265° West 411 473 20,400 2,880 Climbing FlightAware
04:54PM 38.0100 -86.5770 266° West 418 481 22,700 2,640 Climbing FlightAware
04:55PM 38.0040 -86.6720 265° West 431 496 24,100 2,160 Climbing FlightAware
04:56PM 37.9960 -86.7930 265° West 446 513 25,800 2,160 Climbing FlightAware
04:56PM 37.9890 -86.9010 265° West 454 522 27,300 2,040 Climbing FlightAware
04:57PM 37.9810 -87.0140 265° West 464 534 28,700 2,280 Climbing FlightAware
04:58PM 37.9730 -87.1320 265° West 458 527 30,600 2,460 Climbing FlightAware
04:58PM 37.9660 -87.2380 265° West 453 521 32,200 1,620 Climbing FlightAware
04:59PM 37.9580 -87.3600 265° West 466 536 33,000 780 Climbing FlightAware
05:00PM 37.9430 -87.4660 260° West 473 544 33,300 1,620 Climbing FlightAware
05:00PM 37.9190 -87.5820 255° West 455 524 35,300 1,920 Climbing FlightAware
05:01PM 37.8980 -87.6860 256° West 457 526 36,000 540 Climbing FlightAware
05:02PM 37.8860 -87.7790 261° West 455 524 36,000  Level FlightAware
05:03PM 37.8740 -87.9110 263° West 455 524 36,000  Level FlightAware
05:03PM 37.8670 -88.0090 265° West 454 522 36,000  Level FlightAware
05:04PM 37.8610 -88.0890 265° West 453 521 36,000  Level FlightAware
05:04PM 37.8530 -88.2040 265° West 453 521 36,000  Level FlightAware
05:05PM 37.8440 -88.3210 264° West 453 521 36,000  Level FlightAware
05:06PM 37.8370 -88.4230 265° West 453 521 36,000  Level FlightAware
05:07PM 37.8270 -88.5440 264° West 454 522 36,000  Level FlightAware
05:07PM 37.8190 -88.6580 265° West 455 524 36,000  Level FlightAware
05:08PM 37.8100 -88.7630 264° West 456 525 36,000  Level FlightAware
05:09PM 37.8020 -88.8710 265° West 457 526 36,000  Level FlightAware
05:09PM 37.7930 -88.9820 264° West 457 526 36,000  Level FlightAware
05:10PM 37.7830 -89.1020 264° West 459 528 36,000  Level FlightAware
05:11PM 37.7710 -89.2430 264° West 458 527 36,000  Level FlightAware
05:12PM 37.7620 -89.3500 264° West 458 527 36,000  Level FlightAware
05:12PM 37.7530 -89.4580 264° West 458 527 36,000  Level FlightAware
05:13PM 37.7390 -89.6160 264° West 460 529 36,000  Level FlightAware
05:14PM 37.7320 -89.7050 264° West 460 529 36,000  Level FlightAware
05:15PM 37.7230 -89.8140 264° West 460 529 36,000  Level FlightAware
05:15PM 37.7160 -89.8960 264° West 460 529 36,000  Level FlightAware
05:16PM 37.7070 -90.0080 264° West 460 529 36,000  Level FlightAware
05:17PM 37.7000 -90.0900 264° West 460 529 36,000  Level FlightAware
05:18PM 37.6910 -90.2010 264° West 460 529 36,000  Level FlightAware
05:18PM 37.6830 -90.2920 264° West 460 529 36,000  Level FlightAware
05:19PM 37.6760 -90.3740 264° West 460 529 36,000  Level FlightAware
05:20PM 37.6670 -90.4830 264° West 460 529 36,000  Level FlightAware
05:20PM 37.6600 -90.5650 264° West 460 529 36,000  Level FlightAware
05:21PM 37.6510 -90.6760 264° West 460 529 36,000  Level FlightAware
05:22PM 37.6440 -90.7580 264° West 460 529 36,000  Level FlightAware
05:22PM 37.6350 -90.8670 264° West 460 529 36,000  Level FlightAware
05:23PM 37.6280 -90.9490 264° West 460 529 36,000 1,200 Level FlightAware
05:24PM 37.5820 -91.2900 260° West 460 529 37,500 1,440 Climbing FlightAware
05:24PM 37.5690 -91.4100 262° West 463 533 38,000 360 Climbing FlightAware
05:25PM 37.5600 -91.4940 262° West 463 533 38,000  Level FlightAware
05:26PM 37.5480 -91.6050 262° West 463 533 38,000  Level FlightAware
05:26PM 37.5370 -91.7180 263° West 461 531 38,000  Level FlightAware
05:27PM 37.5230 -91.8560 263° West 460 529 38,000  Level FlightAware
05:28PM 37.5130 -91.9510 262° West 459 528 38,000  Level FlightAware
05:28PM 37.5000 -92.0690 262° West 457 526 38,000  Level FlightAware
05:29PM 37.4890 -92.1690 262° West 457 526 38,000  Level FlightAware
05:30PM 37.4780 -92.2700 262° West 456 525 38,000  Level FlightAware
05:31PM 37.4640 -92.3940 262° West 455 524 38,000  Level FlightAware
05:31PM 37.4530 -92.4980 262° West 455 524 38,000  Level FlightAware
05:32PM 37.4400 -92.6150 262° West 454 522 38,000  Level FlightAware
05:33PM 37.4280 -92.7200 262° West 454 522 38,000  Level FlightAware
05:33PM 37.4170 -92.8080 261° West 454 522 38,000  Level FlightAware
05:34PM 37.4050 -92.9200 262° West 455 524 38,000  Level FlightAware
05:35PM 37.3910 -93.0400 262° West 455 524 38,000  Level FlightAware
05:35PM 37.3800 -93.1300 261° West 455 524 38,000  Level FlightAware
05:36PM 37.3680 -93.2330 262° West 455 524 38,000  Level FlightAware
05:37PM 37.3550 -93.3460 262° West 455 524 38,000  Level FlightAware
05:37PM 37.3390 -93.4540 259° West 456 525 38,000  Level FlightAware
05:38PM 37.3220 -93.5670 259° West 456 525 38,000  Level FlightAware
05:39PM 37.3070 -93.6720 260° West 457 526 38,000  Level FlightAware
05:39PM 37.2900 -93.7890 260° West 457 526 38,000  Level FlightAware
05:40PM 37.2750 -93.8930 260° West 456 525 38,000  Level FlightAware
05:41PM 37.2590 -94.0020 260° West 456 525 38,000  Level FlightAware
05:42PM 37.2420 -94.1170 260° West 456 525 38,000  Level FlightAware
05:42PM 37.2260 -94.2240 259° West 455 524 38,000  Level FlightAware
05:43PM 37.2110 -94.3270 260° West 455 524 38,000  Level FlightAware
05:44PM 37.1920 -94.4500 259° West 455 524 38,000  Level FlightAware
05:44PM 37.1800 -94.5280 259° West 456 525 38,000  Level FlightAware
05:45PM 37.1620 -94.6450 259° West 455 524 38,000  Level FlightAware
05:46PM 37.1460 -94.7510 259° West 456 525 38,000  Level FlightAware
05:46PM 37.1280 -94.8620 259° West 456 525 38,000  Level FlightAware
05:47PM 37.1110 -94.9730 259° West 455 524 38,000  Level FlightAware
05:48PM 37.0940 -95.0810 259° West 455 524 38,000  Level FlightAware
05:48PM 37.0780 -95.1820 259° West 454 522 38,000  Level FlightAware
05:49PM 37.0600 -95.2970 259° West 453 521 38,000  Level FlightAware
05:50PM 37.0440 -95.3960 259° West 452 520 38,000  Level FlightAware
05:50PM 37.0270 -95.5020 259° West 452 520 38,000  Level FlightAware
05:51PM 37.0080 -95.6170 258° West 452 520 38,000  Level FlightAware
05:52PM 36.9910 -95.7260 259° West 453 521 38,000  Level FlightAware
05:53PM 36.9720 -95.8360 258° West 451 519 38,000  Level FlightAware
05:53PM 36.9550 -95.9430 259° West 451 519 38,000  Level FlightAware
05:54PM 36.9360 -96.0540 258° West 451 519 38,000  Level FlightAware
05:55PM 36.9180 -96.1660 259° West 450 518 38,000  Level FlightAware
05:55PM 36.9010 -96.2660 258° West 450 518 38,000  Level FlightAware
05:56PM 36.8850 -96.3570 258° West 450 518 38,000  Level FlightAware
05:57PM 36.8690 -96.4560 259° West 451 519 38,000  Level FlightAware
05:57PM 36.8510 -96.5600 258° West 452 520 38,000  Level FlightAware
05:58PM 36.8340 -96.6590 258° West 452 520 38,000  Level FlightAware
05:59PM 36.8150 -96.7710 258° West 453 521 38,000  Level FlightAware
05:59PM 36.7990 -96.8630 258° West 452 520 38,000  Level FlightAware
06:00PM 36.7820 -96.9590 258° West 452 520 38,000  Level FlightAware
06:01PM 36.7640 -97.0540 257° West 452 520 38,000  Level FlightAware
06:02PM 36.7370 -97.2240 259° West 451 519 38,000  Level FlightAware
06:02PM 36.7230 -97.3330 261° West 452 520 38,000  Level FlightAware
06:03PM 36.7080 -97.4450 261° West 452 520 38,000  Level FlightAware
06:04PM 36.6930 -97.5500 260° West 452 520 38,000  Level FlightAware
06:04PM 36.6770 -97.6620 260° West 451 519 38,000  Level FlightAware
06:05PM 36.6620 -97.7690 260° West 450 518 38,000  Level FlightAware
06:06PM 36.6470 -97.8730 260° West 449 517 38,000  Level FlightAware
06:07PM 36.6320 -97.9810 260° West 448 516 38,000  Level FlightAware
06:07PM 36.6170 -98.0840 260° West 449 517 38,000  Level FlightAware
06:08PM 36.6000 -98.2010 260° West 447 514 38,000  Level FlightAware
06:09PM 36.5850 -98.3040 260° West 447 514 38,000  Level FlightAware
06:09PM 36.5710 -98.4010 260° West 445 512 38,000  Level FlightAware
06:10PM 36.5520 -98.5260 259° West 445 512 38,000  Level FlightAware
06:11PM 36.5360 -98.6340 260° West 444 511 38,000  Level FlightAware
06:12PM 36.5230 -98.7180 259° West 444 511 38,000  Level FlightAware
06:12PM 36.5110 -98.7950 259° West 444 511 38,000  Level FlightAware
06:13PM 36.4990 -98.8710 259° West 444 511 38,000  Level FlightAware
06:14PM 36.4830 -98.9740 259° West 444 511 38,000  Level FlightAware
06:14PM 36.4710 -99.0500 259° West 444 511 38,000  Level FlightAware
06:15PM 36.4590 -99.1290 259° West 444 511 38,000  Level FlightAware
06:16PM 36.4280 -99.3250 259° West 444 511 38,000  Level FlightAware
06:17PM 36.4160 -99.4020 259° West 444 511 38,000  Level FlightAware
06:18PM 36.3910 -99.5620 259° West 444 511 38,000  Level FlightAware
06:19PM 36.3790 -99.6380 259° West 444 511 38,000  Level FlightAware
06:19PM 36.3660 -99.7210 259° West 444 511 38,000  Level FlightAware
06:20PM 36.3540 -99.7980 259° West 444 511 38,000  Level FlightAware
06:21PM 36.3380 -99.9000 259° West 444 511 38,000  Level FlightAware
06:22PM 36.3003 -100.2661 259° West 450 518 38,000  Level Kansas City Center
06:23PM 36.2844 -100.4200 263° West 451 519 38,000  Level Kansas City Center
06:24PM 36.2672 -100.5731 262° West 449 517 38,000  Level Kansas City Center
06:25PM 36.2475 -100.7378 262° West 452 520 38,000  Level Kansas City Center
06:26PM 36.2300 -100.8903 262° West 451 519 38,000  Level Kansas City Center
06:27PM 36.2122 -101.0444 262° West 453 521 38,000  Level Kansas City Center
06:28PM 36.1947 -101.1986 262° West 454 522 38,000  Level Kansas City Center
06:29PM 36.1722 -101.3822 261° West 453 521 38,000  Level Kansas City Center
06:30PM 36.1547 -101.5358 262° West 454 522 38,000  Level Kansas City Center
06:31PM 36.1353 -101.6900 261° West 456 525 38,000  Level Kansas City Center
06:32PM 36.1164 -101.8417 261° West 452 520 38,000  Level Kansas City Center
06:33PM 36.0972 -101.9961 261° West 454 522 38,000  Level Kansas City Center
06:34PM 36.0697 -102.2106 261° West 455 524 38,000  Level Albuquerque Center
06:35PM 36.0511 -102.3633 261° West 454 522 38,000  Level Albuquerque Center
06:36PM 36.0306 -102.5167 261° West 454 522 38,000  Level Albuquerque Center
06:38PM 36.0067 -102.7000 261° West 455 524 38,000  Level Albuquerque Center
06:39PM 35.9856 -102.8517 260° West 452 520 38,000  Level Albuquerque Center
06:40PM 35.9656 -103.0089 261° West 454 522 38,000  Level Albuquerque Center
06:41PM 35.9450 -103.1631 261° West 453 521 38,000  Level Albuquerque Center
06:42PM 35.9239 -103.3172 260° West 454 522 38,000  Level Albuquerque Center
06:43PM 35.9014 -103.4719 260° West 455 524 38,000  Level Albuquerque Center
06:44PM 35.8808 -103.6264 261° West 455 524 38,000  Level Albuquerque Center
06:45PM 35.8586 -103.7808 260° West 456 525 38,000  Level Albuquerque Center
06:46PM 35.8361 -103.9350 260° West 456 525 38,000  Level Albuquerque Center
06:47PM 35.8114 -104.1158 260° West 457 526 38,000  Level Albuquerque Center
06:48PM 35.7881 -104.2694 259° West 456 525 38,000  Level Albuquerque Center
06:49PM 35.7658 -104.4236 260° West 456 525 38,000  Level Albuquerque Center
06:50PM 35.7422 -104.5769 259° West 455 524 38,000  Level Albuquerque Center
06:51PM 35.7192 -104.7303 260° West 455 524 38,000  Level Albuquerque Center
06:52PM 35.6961 -104.8831 260° West 454 522 38,000  Level Albuquerque Center
06:58PM 35.5530 -105.7980 260° West 452 520 38,000  Level FlightAware
06:58PM 35.5370 -105.9010 259° West 452 520 38,000 -180 Level FlightAware
06:59PM 35.5200 -106.0050 259° West 450 518 37,800 -780 Descending FlightAware
07:00PM 35.5040 -106.1070 259° West 454 522 37,000 -1,260 Descending FlightAware
07:01PM 35.4860 -106.2120 258° West 454 522 36,100 -720 Descending FlightAware
07:01PM 35.4680 -106.3230 259° West 449 517 36,000 -120 Descending FlightAware
07:02PM 35.4510 -106.4280 259° West 450 518 36,000  Level FlightAware
07:03PM 35.4330 -106.5340 258° West 447 514 36,000  Level FlightAware
07:03PM 35.4180 -106.6240 258° West 448 516 36,000  Level FlightAware
07:04PM 35.4010 -106.7280 259° West 448 516 36,000  Level FlightAware
07:05PM 35.3860 -106.8170 258° West 447 514 36,000  Level FlightAware
07:05PM 35.3690 -106.9170 258° West 448 516 36,000  Level FlightAware
07:06PM 35.3500 -107.0250 258° West 448 516 36,000  Level FlightAware
07:07PM 35.3330 -107.1250 258° West 450 518 36,000  Level FlightAware
07:07PM 35.3170 -107.2160 258° West 453 521 36,000  Level FlightAware
07:08PM 35.2950 -107.3480 258° West 453 521 36,000  Level FlightAware
07:09PM 35.2760 -107.4540 258° West 455 524 36,000  Level FlightAware
07:10PM 35.2580 -107.5520 257° West 455 524 36,000  Level FlightAware
07:10PM 35.2440 -107.6280 257° West 455 524 36,000  Level FlightAware
07:11PM 35.2260 -107.7220 257° West 455 524 36,000  Level FlightAware
07:12PM 35.2110 -107.8030 257° West 455 524 36,000  Level FlightAware
07:12PM 35.1840 -107.9710 259° West 455 524 36,000  Level FlightAware
07:13PM 35.1660 -108.0760 258° West 455 524 36,000  Level FlightAware
07:14PM 35.1380 -108.2250 257° West 454 522 36,000  Level FlightAware
07:15PM 35.1180 -108.3270 257° West 454 522 36,000  Level FlightAware
07:15PM 35.1040 -108.4040 257° West 454 522 36,000  Level FlightAware
07:16PM 35.0850 -108.5060 257° West 454 522 36,000  Level FlightAware
07:17PM 35.0700 -108.5820 256° West 454 522 36,000  Level FlightAware
07:18PM 35.0500 -108.6890 257° West 454 522 36,000 -1,380 Level FlightAware
07:18PM 34.9890 -108.8820 249° West 447 514 34,000 -1,440 Descending FlightAware
07:19PM 34.9590 -108.9870 251° West 451 519 34,000  Level FlightAware
07:20PM 34.9360 -109.0650 250° West 452 520 34,000  Level FlightAware
07:21PM 34.9010 -109.1870 251° West 451 519 34,000  Level FlightAware
07:21PM 34.8720 -109.2890 251° West 452 520 34,000  Level FlightAware
07:22PM 34.8440 -109.3860 251° West 454 522 34,000  Level FlightAware
07:23PM 34.8130 -109.4950 251° West 456 525 34,000  Level FlightAware
07:23PM 34.7850 -109.5900 250° West 458 527 34,000  Level FlightAware
07:24PM 34.7550 -109.6940 251° West 460 529 34,000  Level FlightAware
07:25PM 34.7260 -109.7920 250° West 461 531 34,000  Level FlightAware
07:25PM 34.6900 -109.8990 248° West 459 528 34,000  Level FlightAware
07:26PM 34.6520 -109.9770 239° Southwest 456 525 34,000 -240 Level FlightAware
07:27PM 34.6060 -110.0640 237° Southwest 446 513 33,700 -840 Descending FlightAware
07:27PM 34.5570 -110.1570 237° Southwest 448 516 32,900 -1,200 Descending FlightAware
07:28PM 34.5190 -110.2280 237° Southwest 447 514 32,200 -1,320 Descending FlightAware
07:29PM 34.4720 -110.3170 237° Southwest 450 518 31,300 -1,380 Descending FlightAware
07:29PM 34.4220 -110.4100 237° Southwest 447 514 30,300 -1,860 Descending FlightAware
07:30PM 34.3740 -110.4990 237° Southwest 444 511 28,700 -2,400 Descending FlightAware
07:31PM 34.3300 -110.5810 237° Southwest 443 510 27,100 -1,980 Descending FlightAware
07:31PM 34.2820 -110.6700 237° Southwest 435 501 26,000 -960 Descending FlightAware
07:32PM 34.2440 -110.7390 236° Southwest 432 497 25,900 -1,080 Descending FlightAware
07:33PM 34.1930 -110.8320 236° Southwest 406 467 24,600 -2,400 Descending FlightAware
07:34PM 34.1480 -110.9180 238° Southwest 414 476 22,300 -2,820 Descending FlightAware
07:34PM 34.1110 -110.9850 236° Southwest 394 453 20,800 -2,700 Descending FlightAware
07:35PM 34.0710 -111.0570 236° Southwest 388 447 18,600 -2,700 Descending FlightAware
07:36PM 34.0340 -111.1260 237° Southwest 373 429 17,000 -2,700 Descending FlightAware
07:36PM 33.9890 -111.2080 237° Southwest 371 427 14,900 -2,460 Descending FlightAware
07:37PM 33.9570 -111.2660 236° Southwest 370 426 13,700 -1,740 Descending FlightAware
07:38PM 33.9150 -111.3420 236° Southwest 357 411 12,500 -1,080 Descending FlightAware
07:38PM 33.8790 -111.4070 236° Southwest 324 373 12,200 -900 Descending FlightAware
07:39PM 33.8460 -111.4680 237° Southwest 296 341 11,300 -1,560 Descending FlightAware
07:40PM 33.8120 -111.5070 224° Southwest 298 343 10,300 -1,740 Descending FlightAware
07:40PM 33.7880 -111.5250 212° Southwest 297 342 9,800 -1,260 Descending FlightAware
07:40PM 33.7640 -111.5420 210° Southwest 294 338 9,400 -1,080 Descending FlightAware
07:41PM 33.7220 -111.5730 212° Southwest 292 336 8,800 -1,140 Descending FlightAware
07:41PM 33.7130 -111.5780 205° Southwest 292 336 8,600 -1,140 Descending FlightAware
07:41PM 33.6800 -111.5930 201° Southwest 294 338 8,200 -420 Descending FlightAware
07:42PM 33.6390 -111.6210 210° Southwest 290 334 8,200 -300 Level FlightAware
07:43PM 33.6130 -111.6430 215° Southwest 278 320 7,900 -1,440 Descending FlightAware
07:43PM 33.5860 -111.6670 217° Southwest 281 323 7,000 -1,980 Descending FlightAware
07:43PM 33.5520 -111.6980 217° Southwest 274 315 6,000 -1,620 Descending FlightAware
07:44PM 33.5300 -111.7200 220° Southwest 276 318 5,500 -1,200 Descending FlightAware
07:44PM 33.5170 -111.7320 218° Southwest 272 313 5,300 -480 Descending FlightAware
07:45PM 33.4890 -111.7570 217° Southwest 239 275 5,200 -300 Descending FlightAware
07:45PM 33.4660 -111.7790 219° Southwest 211 243 5,000 -720 Descending FlightAware
07:45PM 33.4560 -111.7880 217° Southwest 206 237 4,700 -1,320 Descending FlightAware
07:46PM 33.4360 -111.8060 217° Southwest 202 232 4,200 -900 Descending FlightAware
07:46PM 33.4290 -111.8210 241° Southwest 184 212 4,100 -780 Descending FlightAware
07:46PM 33.4290 -111.8340 270° West 189 217 3,800 -1,200 Descending FlightAware
07:47PM 33.4280 -111.8780 268° West 185 213 3,200 -1,080 Descending FlightAware
07:47PM 33.4290 -111.9020 273° West 176 203 2,800 -960 Descending FlightAware
07:48PM 33.4290 -111.9280 270° West 157 181 2,400 -780 Descending FlightAware
07:48PM 33.4290 -111.9530 270° West 142 163 2,100 -720 Descending FlightAware
07:48PM 33.4290 -111.9700 270° West 146 168 1,800 -480 Descending FlightAware
07:49PM 33.4290 -112.0120 270° West 149 171 1,500 -360 Descending FlightAware
07:50PM 33.4290 -112.0240 270° West 38 44 -3,240 Descending FlightAware
07:50PM 33.4290 -112.0280 270° West 38 44  Level FlightAware
07:52PM 33.4280 -112.0180 97° East 34 39  Level FlightAware
07:52PM 33.4270 -112.0170 140° Southeast 22 25  Level FlightAware
07:57PM 33.4333 -112.0000 90° East  Level FlightAware Approximate